sensor_id;sensor_type;location;lat;lon;timestamp;temperature;humidity
19359;DHT22;9815;52.334;20.890;2024-03-02T00:02:00;7.80;99.90
19359;DHT22;9815;52.334;20.890;2024-03-02T00:04:29;7.70;99.90
19359;DHT22;9815;52.334;20.890;2024-03-02T00:06:59;7.80;99.90
19359;DHT22;9815;52.334;20.890;2024-03-02T00:09:29;7.80;99.90
19359;DHT22;9815;52.334;20.890;2024-03-02T00:11:58;7.80;99.90
19359;DHT22;9815;52.334;20.890;2024-03-02T00:14:30;7.80;99.90
19359;DHT22;9815;52.334;20.890;2024-03-02T00:16:59;7.80;99.90
19359;DHT22;9815;52.334;20.890;2024-03-02T00:19:28;7.70;99.90
19359;DHT22;9815;52.334;20.890;2024-03-02T00:21:56;7.70;99.90
19359;DHT22;9815;52.334;20.890;2024-03-02T00:24:32;7.70;99.90
19359;DHT22;9815;52.334;20.890;2024-03-02T00:27:04;7.70;99.90
19359;DHT22;9815;52.334;20.890;2024-03-02T00:29:40;7.60;99.90
19359;DHT22;9815;52.334;20.890;2024-03-02T00:32:12;7.60;99.90
19359;DHT22;9815;52.334;20.890;2024-03-02T00:34:42;7.60;99.90
19359;DHT22;9815;52.334;20.890;2024-03-02T00:37:11;7.70;99.90
19359;DHT22;9815;52.334;20.890;2024-03-02T00:39:40;7.70;99.90
19359;DHT22;9815;52.334;20.890;2024-03-02T00:42:09;7.60;99.90
19359;DHT22;9815;52.334;20.890;2024-03-02T00:44:41;7.50;99.90
19359;DHT22;9815;52.334;20.890;2024-03-02T00:47:11;7.50;99.90
19359;DHT22;9815;52.334;20.890;2024-03-02T00:49:40;7.50;99.90
19359;DHT22;9815;52.334;20.890;2024-03-02T00:52:08;7.50;99.90
19359;DHT22;9815;52.334;20.890;2024-03-02T00:54:38;7.50;99.90
19359;DHT22;9815;52.334;20.890;2024-03-02T00:57:10;7.40;99.90
19359;DHT22;9815;52.334;20.890;2024-03-02T00:59:41;7.40;99.90
19359;DHT22;9815;52.334;20.890;2024-03-02T01:02:12;7.40;99.90
19359;DHT22;9815;52.334;20.890;2024-03-02T01:04:41;7.40;99.90
19359;DHT22;9815;52.334;20.890;2024-03-02T01:07:10;7.40;99.90
19359;DHT22;9815;52.334;20.890;2024-03-02T01:09:38;7.40;99.90
19359;DHT22;9815;52.334;20.890;2024-03-02T01:12:08;7.40;99.90
19359;DHT22;9815;52.334;20.890;2024-03-02T01:14:37;7.40;99.90
19359;DHT22;9815;52.334;20.890;2024-03-02T01:17:07;7.40;99.90
19359;DHT22;9815;52.334;20.890;2024-03-02T01:19:36;7.30;99.90
19359;DHT22;9815;52.334;20.890;2024-03-02T01:22:05;7.30;99.90
19359;DHT22;9815;52.334;20.890;2024-03-02T01:24:34;7.30;99.90
19359;DHT22;9815;52.334;20.890;2024-03-02T01:27:03;7.30;99.90
19359;DHT22;9815;52.334;20.890;2024-03-02T01:29:32;7.30;99.90
19359;DHT22;9815;52.334;20.890;2024-03-02T01:32:00;7.20;99.90
19359;DHT22;9815;52.334;20.890;2024-03-02T01:34:30;7.20;99.90
19359;DHT22;9815;52.334;20.890;2024-03-02T01:37:00;7.30;99.90
19359;DHT22;9815;52.334;20.890;2024-03-02T01:39:29;7.20;99.90
19359;DHT22;9815;52.334;20.890;2024-03-02T01:41:57;7.10;99.90
19359;DHT22;9815;52.334;20.890;2024-03-02T01:44:26;7.10;99.90
19359;DHT22;9815;52.334;20.890;2024-03-02T01:46:55;7.00;99.90
19359;DHT22;9815;52.334;20.890;2024-03-02T01:49:23;6.80;99.90
19359;DHT22;9815;52.334;20.890;2024-03-02T01:51:54;7.00;99.90
19359;DHT22;9815;52.334;20.890;2024-03-02T01:54:23;7.00;99.90
19359;DHT22;9815;52.334;20.890;2024-03-02T01:56:52;6.90;99.90
19359;DHT22;9815;52.334;20.890;2024-03-02T01:59:23;6.90;99.90
19359;DHT22;9815;52.334;20.890;2024-03-02T02:01:52;6.80;99.90
19359;DHT22;9815;52.334;20.890;2024-03-02T02:04:21;6.80;99.90
19359;DHT22;9815;52.334;20.890;2024-03-02T02:06:56;6.80;99.90
19359;DHT22;9815;52.334;20.890;2024-03-02T02:09:25;6.70;99.90
19359;DHT22;9815;52.334;20.890;2024-03-02T02:11:54;6.70;99.90
19359;DHT22;9815;52.334;20.890;2024-03-02T02:14:23;6.70;99.90
19359;DHT22;9815;52.334;20.890;2024-03-02T02:16:52;6.70;99.90
19359;DHT22;9815;52.334;20.890;2024-03-02T02:19:22;6.70;99.90
19359;DHT22;9815;52.334;20.890;2024-03-02T02:21:52;6.70;99.90
19359;DHT22;9815;52.334;20.890;2024-03-02T02:24:21;6.80;99.90
19359;DHT22;9815;52.334;20.890;2024-03-02T02:26:50;6.80;99.90
19359;DHT22;9815;52.334;20.890;2024-03-02T02:29:20;6.80;99.90
19359;DHT22;9815;52.334;20.890;2024-03-02T02:31:49;6.70;99.90
19359;DHT22;9815;52.334;20.890;2024-03-02T02:34:17;6.80;99.90
19359;DHT22;9815;52.334;20.890;2024-03-02T02:36:46;6.70;99.90
19359;DHT22;9815;52.334;20.890;2024-03-02T02:39:19;6.80;99.90
19359;DHT22;9815;52.334;20.890;2024-03-02T02:41:49;6.80;99.90
19359;DHT22;9815;52.334;20.890;2024-03-02T02:44:18;6.80;99.90
19359;DHT22;9815;52.334;20.890;2024-03-02T02:46:47;6.80;99.90
19359;DHT22;9815;52.334;20.890;2024-03-02T02:49:16;6.80;99.90
19359;DHT22;9815;52.334;20.890;2024-03-02T02:51:45;6.80;99.90
19359;DHT22;9815;52.334;20.890;2024-03-02T02:54:13;6.80;99.90
19359;DHT22;9815;52.334;20.890;2024-03-02T02:56:43;6.80;99.90
19359;DHT22;9815;52.334;20.890;2024-03-02T02:59:12;6.70;99.90
19359;DHT22;9815;52.334;20.890;2024-03-02T03:01:41;6.70;99.90
19359;DHT22;9815;52.334;20.890;2024-03-02T03:04:10;6.80;99.90
19359;DHT22;9815;52.334;20.890;2024-03-02T03:06:39;6.80;99.90
19359;DHT22;9815;52.334;20.890;2024-03-02T03:09:06;6.70;99.90
19359;DHT22;9815;52.334;20.890;2024-03-02T03:11:38;6.70;99.90
19359;DHT22;9815;52.334;20.890;2024-03-02T03:14:08;6.70;99.90
19359;DHT22;9815;52.334;20.890;2024-03-02T03:16:37;6.60;99.90
19359;DHT22;9815;52.334;20.890;2024-03-02T03:19:06;6.50;99.90
19359;DHT22;9815;52.334;20.890;2024-03-02T03:21:34;6.50;99.90
19359;DHT22;9815;52.334;20.890;2024-03-02T03:24:04;6.50;99.90
19359;DHT22;9815;52.334;20.890;2024-03-02T03:26:35;6.40;99.90
19359;DHT22;9815;52.334;20.890;2024-03-02T03:29:05;6.40;99.90
19359;DHT22;9815;52.334;20.890;2024-03-02T03:31:35;6.30;99.90
19359;DHT22;9815;52.334;20.890;2024-03-02T03:34:04;6.30;99.90
19359;DHT22;9815;52.334;20.890;2024-03-02T03:36:32;6.30;99.90
19359;DHT22;9815;52.334;20.890;2024-03-02T03:39:01;6.30;99.90
19359;DHT22;9815;52.334;20.890;2024-03-02T03:41:31;6.20;99.90
19359;DHT22;9815;52.334;20.890;2024-03-02T03:43:59;6.10;99.90
19359;DHT22;9815;52.334;20.890;2024-03-02T03:46:28;6.10;99.90
19359;DHT22;9815;52.334;20.890;2024-03-02T03:48:58;6.10;99.90
19359;DHT22;9815;52.334;20.890;2024-03-02T03:51:27;6.00;99.90
19359;DHT22;9815;52.334;20.890;2024-03-02T03:53:56;6.00;99.90
19359;DHT22;9815;52.334;20.890;2024-03-02T03:56:24;6.00;99.90
19359;DHT22;9815;52.334;20.890;2024-03-02T03:58:53;6.00;99.90
19359;DHT22;9815;52.334;20.890;2024-03-02T04:01:22;6.00;99.90
19359;DHT22;9815;52.334;20.890;2024-03-02T04:03:51;6.00;99.90
19359;DHT22;9815;52.334;20.890;2024-03-02T04:06:21;5.90;99.90
19359;DHT22;9815;52.334;20.890;2024-03-02T04:08:50;5.80;99.90
19359;DHT22;9815;52.334;20.890;2024-03-02T04:11:19;5.80;99.90
19359;DHT22;9815;52.334;20.890;2024-03-02T04:13:47;5.90;99.90
19359;DHT22;9815;52.334;20.890;2024-03-02T04:16:16;5.90;99.90
19359;DHT22;9815;52.334;20.890;2024-03-02T04:18:45;5.90;99.90
19359;DHT22;9815;52.334;20.890;2024-03-02T04:21:14;5.90;99.90
19359;DHT22;9815;52.334;20.890;2024-03-02T04:23:44;5.90;99.90
19359;DHT22;9815;52.334;20.890;2024-03-02T04:26:13;6.00;99.90
19359;DHT22;9815;52.334;20.890;2024-03-02T04:28:42;6.00;99.90
19359;DHT22;9815;52.334;20.890;2024-03-02T04:31:11;6.00;99.90
19359;DHT22;9815;52.334;20.890;2024-03-02T04:33:39;6.00;99.90
19359;DHT22;9815;52.334;20.890;2024-03-02T04:36:08;6.00;99.90
19359;DHT22;9815;52.334;20.890;2024-03-02T04:38:38;6.00;99.90
19359;DHT22;9815;52.334;20.890;2024-03-02T04:41:08;6.00;99.90
19359;DHT22;9815;52.334;20.890;2024-03-02T04:43:37;6.10;99.90
19359;DHT22;9815;52.334;20.890;2024-03-02T04:46:06;6.20;99.90
19359;DHT22;9815;52.334;20.890;2024-03-02T04:48:35;6.10;99.90
19359;DHT22;9815;52.334;20.890;2024-03-02T04:51:04;6.10;99.90
19359;DHT22;9815;52.334;20.890;2024-03-02T04:53:33;6.10;99.90
19359;DHT22;9815;52.334;20.890;2024-03-02T04:56:01;6.10;99.90
19359;DHT22;9815;52.334;20.890;2024-03-02T04:59:07;6.10;99.90
19359;DHT22;9815;52.334;20.890;2024-03-02T05:01:36;6.00;99.90
19359;DHT22;9815;52.334;20.890;2024-03-02T05:04:05;6.00;99.90
19359;DHT22;9815;52.334;20.890;2024-03-02T05:06:34;5.90;99.90
19359;DHT22;9815;52.334;20.890;2024-03-02T05:09:03;5.90;99.90
19359;DHT22;9815;52.334;20.890;2024-03-02T05:11:31;5.90;99.90
19359;DHT22;9815;52.334;20.890;2024-03-02T05:14:18;5.90;99.90
19359;DHT22;9815;52.334;20.890;2024-03-02T05:16:47;5.90;99.90
19359;DHT22;9815;52.334;20.890;2024-03-02T05:19:16;5.90;99.90
19359;DHT22;9815;52.334;20.890;2024-03-02T05:21:47;5.80;99.90
19359;DHT22;9815;52.334;20.890;2024-03-02T05:24:17;5.80;99.90
19359;DHT22;9815;52.334;20.890;2024-03-02T05:26:47;5.80;99.90
19359;DHT22;9815;52.334;20.890;2024-03-02T05:29:17;5.80;99.90
19359;DHT22;9815;52.334;20.890;2024-03-02T05:31:46;5.80;99.90
19359;DHT22;9815;52.334;20.890;2024-03-02T05:34:15;5.90;99.90
19359;DHT22;9815;52.334;20.890;2024-03-02T05:36:44;5.80;99.90
19359;DHT22;9815;52.334;20.890;2024-03-02T05:39:13;5.80;99.90
19359;DHT22;9815;52.334;20.890;2024-03-02T05:41:43;5.80;99.90
19359;DHT22;9815;52.334;20.890;2024-03-02T05:44:12;5.80;99.90
19359;DHT22;9815;52.334;20.890;2024-03-02T05:46:44;5.80;99.90
19359;DHT22;9815;52.334;20.890;2024-03-02T05:49:13;5.80;99.90
19359;DHT22;9815;52.334;20.890;2024-03-02T05:51:42;5.80;99.90
19359;DHT22;9815;52.334;20.890;2024-03-02T05:54:11;5.80;99.90
19359;DHT22;9815;52.334;20.890;2024-03-02T05:56:40;5.80;99.90
19359;DHT22;9815;52.334;20.890;2024-03-02T05:59:09;5.80;99.90
19359;DHT22;9815;52.334;20.890;2024-03-02T06:01:42;5.90;99.90
19359;DHT22;9815;52.334;20.890;2024-03-02T06:04:13;6.00;99.90
19359;DHT22;9815;52.334;20.890;2024-03-02T06:06:43;6.00;99.90
19359;DHT22;9815;52.334;20.890;2024-03-02T06:09:12;5.90;99.90
19359;DHT22;9815;52.334;20.890;2024-03-02T06:11:41;5.90;99.90
19359;DHT22;9815;52.334;20.890;2024-03-02T06:14:10;6.00;99.90
19359;DHT22;9815;52.334;20.890;2024-03-02T06:16:39;6.00;99.90
19359;DHT22;9815;52.334;20.890;2024-03-02T06:19:08;6.00;99.90
19359;DHT22;9815;52.334;20.890;2024-03-02T06:21:38;6.00;99.90
19359;DHT22;9815;52.334;20.890;2024-03-02T06:24:07;6.00;99.90
19359;DHT22;9815;52.334;20.890;2024-03-02T06:26:36;6.10;99.90
19359;DHT22;9815;52.334;20.890;2024-03-02T06:29:05;6.10;99.90
19359;DHT22;9815;52.334;20.890;2024-03-02T06:31:35;6.10;99.90
19359;DHT22;9815;52.334;20.890;2024-03-02T06:34:03;6.10;99.90
19359;DHT22;9815;52.334;20.890;2024-03-02T06:36:33;6.20;99.90
19359;DHT22;9815;52.334;20.890;2024-03-02T06:39:03;6.20;99.90
19359;DHT22;9815;52.334;20.890;2024-03-02T06:41:32;6.20;99.90
19359;DHT22;9815;52.334;20.890;2024-03-02T06:44:02;6.20;99.90
19359;DHT22;9815;52.334;20.890;2024-03-02T06:46:31;6.30;99.90
19359;DHT22;9815;52.334;20.890;2024-03-02T06:49:00;6.30;99.90
19359;DHT22;9815;52.334;20.890;2024-03-02T06:51:30;6.40;99.90
19359;DHT22;9815;52.334;20.890;2024-03-02T06:53:58;6.40;99.90
19359;DHT22;9815;52.334;20.890;2024-03-02T06:56:29;6.40;99.90
19359;DHT22;9815;52.334;20.890;2024-03-02T06:58:58;6.50;99.90
19359;DHT22;9815;52.334;20.890;2024-03-02T07:01:27;6.50;99.90
19359;DHT22;9815;52.334;20.890;2024-03-02T07:03:56;6.60;99.90
19359;DHT22;9815;52.334;20.890;2024-03-02T07:06:25;6.70;99.90
19359;DHT22;9815;52.334;20.890;2024-03-02T07:08:54;6.70;99.90
19359;DHT22;9815;52.334;20.890;2024-03-02T07:11:22;6.70;99.90
19359;DHT22;9815;52.334;20.890;2024-03-02T07:13:53;6.70;99.90
19359;DHT22;9815;52.334;20.890;2024-03-02T07:16:22;6.80;99.90
19359;DHT22;9815;52.334;20.890;2024-03-02T07:18:55;6.90;99.90
19359;DHT22;9815;52.334;20.890;2024-03-02T07:21:25;6.90;99.90
19359;DHT22;9815;52.334;20.890;2024-03-02T07:23:53;6.90;99.90
19359;DHT22;9815;52.334;20.890;2024-03-02T07:26:22;7.00;99.90
19359;DHT22;9815;52.334;20.890;2024-03-02T07:28:55;7.00;99.90
19359;DHT22;9815;52.334;20.890;2024-03-02T07:31:24;7.00;99.90
19359;DHT22;9815;52.334;20.890;2024-03-02T07:33:53;7.00;99.90
19359;DHT22;9815;52.334;20.890;2024-03-02T07:36:22;7.10;99.90
19359;DHT22;9815;52.334;20.890;2024-03-02T07:38:51;7.20;99.90
19359;DHT22;9815;52.334;20.890;2024-03-02T07:41:20;7.20;99.90
19359;DHT22;9815;52.334;20.890;2024-03-02T07:43:49;7.20;99.90
19359;DHT22;9815;52.334;20.890;2024-03-02T07:46:19;7.20;99.90
19359;DHT22;9815;52.334;20.890;2024-03-02T07:48:48;7.20;99.90
19359;DHT22;9815;52.334;20.890;2024-03-02T07:51:19;7.30;99.90
19359;DHT22;9815;52.334;20.890;2024-03-02T07:53:48;7.20;99.90
19359;DHT22;9815;52.334;20.890;2024-03-02T07:56:17;7.20;99.90
19359;DHT22;9815;52.334;20.890;2024-03-02T07:58:49;7.20;99.90
19359;DHT22;9815;52.334;20.890;2024-03-02T08:01:20;7.30;99.90
19359;DHT22;9815;52.334;20.890;2024-03-02T08:03:49;7.40;99.90
19359;DHT22;9815;52.334;20.890;2024-03-02T08:06:20;7.40;99.90
19359;DHT22;9815;52.334;20.890;2024-03-02T08:08:49;7.40;99.90
19359;DHT22;9815;52.334;20.890;2024-03-02T08:11:17;7.40;99.90
19359;DHT22;9815;52.334;20.890;2024-03-02T08:13:46;7.50;99.90
19359;DHT22;9815;52.334;20.890;2024-03-02T08:16:16;7.50;99.90
19359;DHT22;9815;52.334;20.890;2024-03-02T08:18:48;7.50;99.90
19359;DHT22;9815;52.334;20.890;2024-03-02T08:21:17;7.50;99.90
19359;DHT22;9815;52.334;20.890;2024-03-02T08:23:46;7.60;99.90
19359;DHT22;9815;52.334;20.890;2024-03-02T08:26:15;7.60;99.90
19359;DHT22;9815;52.334;20.890;2024-03-02T08:28:44;7.60;99.90
19359;DHT22;9815;52.334;20.890;2024-03-02T08:31:13;7.60;99.90
19359;DHT22;9815;52.334;20.890;2024-03-02T08:33:42;7.60;99.90
19359;DHT22;9815;52.334;20.890;2024-03-02T08:36:12;7.50;99.90
19359;DHT22;9815;52.334;20.890;2024-03-02T08:38:40;7.60;99.90
19359;DHT22;9815;52.334;20.890;2024-03-02T08:41:11;7.60;99.90
19359;DHT22;9815;52.334;20.890;2024-03-02T08:43:41;7.70;99.90
19359;DHT22;9815;52.334;20.890;2024-03-02T08:46:10;7.70;99.90
19359;DHT22;9815;52.334;20.890;2024-03-02T08:48:39;7.70;99.90
19359;DHT22;9815;52.334;20.890;2024-03-02T08:51:08;7.70;99.90
19359;DHT22;9815;52.334;20.890;2024-03-02T08:53:38;7.70;99.90
19359;DHT22;9815;52.334;20.890;2024-03-02T08:56:07;7.70;99.90
19359;DHT22;9815;52.334;20.890;2024-03-02T08:58:36;7.70;99.90
19359;DHT22;9815;52.334;20.890;2024-03-02T09:01:04;7.80;99.90
19359;DHT22;9815;52.334;20.890;2024-03-02T09:03:34;7.80;99.90
19359;DHT22;9815;52.334;20.890;2024-03-02T09:06:04;7.80;99.90
19359;DHT22;9815;52.334;20.890;2024-03-02T09:08:33;7.80;99.90
19359;DHT22;9815;52.334;20.890;2024-03-02T09:11:04;7.80;99.90
19359;DHT22;9815;52.334;20.890;2024-03-02T09:13:33;7.80;99.90
19359;DHT22;9815;52.334;20.890;2024-03-02T09:16:02;7.80;99.90
19359;DHT22;9815;52.334;20.890;2024-03-02T09:18:31;7.80;99.90
19359;DHT22;9815;52.334;20.890;2024-03-02T09:21:00;7.90;99.90
19359;DHT22;9815;52.334;20.890;2024-03-02T09:23:29;8.00;99.90
19359;DHT22;9815;52.334;20.890;2024-03-02T09:25:57;8.20;99.90
19359;DHT22;9815;52.334;20.890;2024-03-02T09:28:27;8.30;99.90
19359;DHT22;9815;52.334;20.890;2024-03-02T09:30:56;8.40;99.90
19359;DHT22;9815;52.334;20.890;2024-03-02T09:33:27;8.50;99.90
19359;DHT22;9815;52.334;20.890;2024-03-02T09:35:55;8.50;99.90
19359;DHT22;9815;52.334;20.890;2024-03-02T09:38:24;8.50;99.90
19359;DHT22;9815;52.334;20.890;2024-03-02T09:40:52;8.60;99.90
19359;DHT22;9815;52.334;20.890;2024-03-02T09:43:21;8.60;99.90
19359;DHT22;9815;52.334;20.890;2024-03-02T09:45:52;8.60;99.90
19359;DHT22;9815;52.334;20.890;2024-03-02T09:48:21;8.70;99.90
19359;DHT22;9815;52.334;20.890;2024-03-02T09:50:50;8.70;99.90
19359;DHT22;9815;52.334;20.890;2024-03-02T09:53:19;8.70;99.90
19359;DHT22;9815;52.334;20.890;2024-03-02T09:55:48;8.70;99.90
19359;DHT22;9815;52.334;20.890;2024-03-02T09:58:17;8.70;99.90
19359;DHT22;9815;52.334;20.890;2024-03-02T10:00:46;8.70;99.90
19359;DHT22;9815;52.334;20.890;2024-03-02T10:03:18;8.70;99.90
19359;DHT22;9815;52.334;20.890;2024-03-02T10:05:48;8.80;99.90
19359;DHT22;9815;52.334;20.890;2024-03-02T10:08:16;8.80;99.90
19359;DHT22;9815;52.334;20.890;2024-03-02T10:10:44;8.90;99.90
19359;DHT22;9815;52.334;20.890;2024-03-02T10:13:13;8.90;99.90
19359;DHT22;9815;52.334;20.890;2024-03-02T10:15:43;9.00;99.90
19359;DHT22;9815;52.334;20.890;2024-03-02T10:18:12;9.10;99.90
19359;DHT22;9815;52.334;20.890;2024-03-02T10:20:44;9.20;99.90
19359;DHT22;9815;52.334;20.890;2024-03-02T10:23:13;9.30;99.90
19359;DHT22;9815;52.334;20.890;2024-03-02T10:25:42;9.50;99.90
19359;DHT22;9815;52.334;20.890;2024-03-02T10:28:24;9.50;99.90
19359;DHT22;9815;52.334;20.890;2024-03-02T10:30:55;9.70;99.90
19359;DHT22;9815;52.334;20.890;2024-03-02T10:33:24;9.80;99.90
19359;DHT22;9815;52.334;20.890;2024-03-02T10:35:55;9.90;99.90
19359;DHT22;9815;52.334;20.890;2024-03-02T10:38:25;9.90;99.90
19359;DHT22;9815;52.334;20.890;2024-03-02T10:40:54;10.00;99.90
19359;DHT22;9815;52.334;20.890;2024-03-02T10:43:26;10.10;99.90
19359;DHT22;9815;52.334;20.890;2024-03-02T10:45:56;10.10;99.90
19359;DHT22;9815;52.334;20.890;2024-03-02T10:48:27;10.10;99.90
19359;DHT22;9815;52.334;20.890;2024-03-02T10:50:58;10.10;99.90
19359;DHT22;9815;52.334;20.890;2024-03-02T10:53:29;10.10;99.90
19359;DHT22;9815;52.334;20.890;2024-03-02T10:55:58;10.10;99.90
19359;DHT22;9815;52.334;20.890;2024-03-02T10:58:32;10.20;99.90
19359;DHT22;9815;52.334;20.890;2024-03-02T11:01:22;10.30;99.90
19359;DHT22;9815;52.334;20.890;2024-03-02T11:04:41;10.40;99.90
19359;DHT22;9815;52.334;20.890;2024-03-02T11:07:14;10.60;99.90
19359;DHT22;9815;52.334;20.890;2024-03-02T11:09:51;10.60;99.90
19359;DHT22;9815;52.334;20.890;2024-03-02T11:12:29;10.60;99.90
19359;DHT22;9815;52.334;20.890;2024-03-02T11:15:02;10.60;99.90
19359;DHT22;9815;52.334;20.890;2024-03-02T11:17:33;10.60;99.90
19359;DHT22;9815;52.334;20.890;2024-03-02T11:20:04;10.60;99.90
19359;DHT22;9815;52.334;20.890;2024-03-02T11:22:37;10.60;99.90
19359;DHT22;9815;52.334;20.890;2024-03-02T11:25:23;10.60;99.90
19359;DHT22;9815;52.334;20.890;2024-03-02T11:28:02;10.50;99.90
19359;DHT22;9815;52.334;20.890;2024-03-02T11:33:26;10.40;99.90
19359;DHT22;9815;52.334;20.890;2024-03-02T11:35:58;10.50;99.90
19359;DHT22;9815;52.334;20.890;2024-03-02T11:38:32;10.50;99.90
19359;DHT22;9815;52.334;20.890;2024-03-02T11:41:02;10.50;99.90
19359;DHT22;9815;52.334;20.890;2024-03-02T11:43:31;10.40;99.90
19359;DHT22;9815;52.334;20.890;2024-03-02T11:46:03;10.50;99.90
19359;DHT22;9815;52.334;20.890;2024-03-02T11:48:39;10.50;99.90
19359;DHT22;9815;52.334;20.890;2024-03-02T11:51:08;10.60;99.90
19359;DHT22;9815;52.334;20.890;2024-03-02T11:53:43;10.80;99.90
19359;DHT22;9815;52.334;20.890;2024-03-02T11:56:14;10.80;99.90
19359;DHT22;9815;52.334;20.890;2024-03-02T11:58:44;10.80;99.90
19359;DHT22;9815;52.334;20.890;2024-03-02T12:01:14;10.90;99.90
19359;DHT22;9815;52.334;20.890;2024-03-02T12:03:43;10.80;99.90
19359;DHT22;9815;52.334;20.890;2024-03-02T12:06:12;10.80;99.90
19359;DHT22;9815;52.334;20.890;2024-03-02T12:08:43;10.60;99.90
19359;DHT22;9815;52.334;20.890;2024-03-02T12:11:13;10.60;99.90
19359;DHT22;9815;52.334;20.890;2024-03-02T12:13:52;10.60;99.90
19359;DHT22;9815;52.334;20.890;2024-03-02T12:16:25;10.60;99.90
19359;DHT22;9815;52.334;20.890;2024-03-02T12:18:55;10.70;99.90
19359;DHT22;9815;52.334;20.890;2024-03-02T12:21:24;10.80;99.90
19359;DHT22;9815;52.334;20.890;2024-03-02T12:23:55;11.00;99.90
19359;DHT22;9815;52.334;20.890;2024-03-02T12:26:24;11.10;99.90
19359;DHT22;9815;52.334;20.890;2024-03-02T12:28:53;11.20;99.90
19359;DHT22;9815;52.334;20.890;2024-03-02T12:31:21;11.20;99.90
19359;DHT22;9815;52.334;20.890;2024-03-02T12:33:50;11.30;99.90
19359;DHT22;9815;52.334;20.890;2024-03-02T12:36:19;11.40;99.90
19359;DHT22;9815;52.334;20.890;2024-03-02T12:38:47;11.50;99.90
19359;DHT22;9815;52.334;20.890;2024-03-02T12:41:19;11.60;99.90
19359;DHT22;9815;52.334;20.890;2024-03-02T12:43:48;11.70;99.90
19359;DHT22;9815;52.334;20.890;2024-03-02T12:46:17;11.70;99.90
19359;DHT22;9815;52.334;20.890;2024-03-02T12:48:45;11.70;99.90
19359;DHT22;9815;52.334;20.890;2024-03-02T12:51:14;11.80;99.90
19359;DHT22;9815;52.334;20.890;2024-03-02T12:53:43;11.80;99.90
19359;DHT22;9815;52.334;20.890;2024-03-02T12:56:12;11.70;99.90
19359;DHT22;9815;52.334;20.890;2024-03-02T12:58:42;11.80;99.90
19359;DHT22;9815;52.334;20.890;2024-03-02T13:01:11;11.70;99.90
19359;DHT22;9815;52.334;20.890;2024-03-02T13:03:42;11.60;99.90
19359;DHT22;9815;52.334;20.890;2024-03-02T13:06:11;11.40;99.90
19359;DHT22;9815;52.334;20.890;2024-03-02T13:08:39;11.40;99.90
19359;DHT22;9815;52.334;20.890;2024-03-02T13:11:08;11.40;99.90
19359;DHT22;9815;52.334;20.890;2024-03-02T13:13:39;11.30;99.90
19359;DHT22;9815;52.334;20.890;2024-03-02T13:16:12;11.30;99.90
19359;DHT22;9815;52.334;20.890;2024-03-02T13:18:44;11.30;99.90
19359;DHT22;9815;52.334;20.890;2024-03-02T13:21:13;11.40;99.90
19359;DHT22;9815;52.334;20.890;2024-03-02T13:23:42;11.30;99.90
19359;DHT22;9815;52.334;20.890;2024-03-02T13:26:11;11.30;99.90
19359;DHT22;9815;52.334;20.890;2024-03-02T13:28:40;11.30;99.90
19359;DHT22;9815;52.334;20.890;2024-03-02T13:31:09;11.30;99.90
19359;DHT22;9815;52.334;20.890;2024-03-02T13:33:40;11.30;99.90
19359;DHT22;9815;52.334;20.890;2024-03-02T13:36:10;11.40;99.90
19359;DHT22;9815;52.334;20.890;2024-03-02T13:38:38;11.40;99.90
19359;DHT22;9815;52.334;20.890;2024-03-02T13:41:07;11.30;99.90
19359;DHT22;9815;52.334;20.890;2024-03-02T13:43:38;11.30;99.90
19359;DHT22;9815;52.334;20.890;2024-03-02T13:46:07;11.30;99.90
19359;DHT22;9815;52.334;20.890;2024-03-02T13:48:37;11.30;99.90
19359;DHT22;9815;52.334;20.890;2024-03-02T13:51:08;11.20;99.90
19359;DHT22;9815;52.334;20.890;2024-03-02T13:53:37;11.20;99.90
19359;DHT22;9815;52.334;20.890;2024-03-02T13:56:07;11.20;99.90
19359;DHT22;9815;52.334;20.890;2024-03-02T13:58:36;11.20;99.90
19359;DHT22;9815;52.334;20.890;2024-03-02T14:01:05;11.10;99.90
19359;DHT22;9815;52.334;20.890;2024-03-02T14:03:34;11.10;99.90
19359;DHT22;9815;52.334;20.890;2024-03-02T14:06:04;11.00;99.90
19359;DHT22;9815;52.334;20.890;2024-03-02T14:08:35;11.00;99.90
19359;DHT22;9815;52.334;20.890;2024-03-02T14:11:04;11.00;99.90
19359;DHT22;9815;52.334;20.890;2024-03-02T14:13:33;10.90;99.90
19359;DHT22;9815;52.334;20.890;2024-03-02T14:16:02;10.80;99.90
19359;DHT22;9815;52.334;20.890;2024-03-02T14:18:32;10.80;99.90
19359;DHT22;9815;52.334;20.890;2024-03-02T14:21:00;10.70;99.90
19359;DHT22;9815;52.334;20.890;2024-03-02T14:23:30;10.80;99.90
19359;DHT22;9815;52.334;20.890;2024-03-02T14:26:00;10.80;99.90
19359;DHT22;9815;52.334;20.890;2024-03-02T14:28:29;10.70;99.90
19359;DHT22;9815;52.334;20.890;2024-03-02T14:31:16;10.70;99.90
19359;DHT22;9815;52.334;20.890;2024-03-02T14:33:45;10.70;99.90
19359;DHT22;9815;52.334;20.890;2024-03-02T14:36:14;10.60;99.90
19359;DHT22;9815;52.334;20.890;2024-03-02T14:38:43;10.70;99.90
19359;DHT22;9815;52.334;20.890;2024-03-02T14:41:14;10.60;99.90
19359;DHT22;9815;52.334;20.890;2024-03-02T14:43:43;10.60;99.90
19359;DHT22;9815;52.334;20.890;2024-03-02T14:46:12;10.50;99.90
19359;DHT22;9815;52.334;20.890;2024-03-02T14:48:41;10.50;99.90
19359;DHT22;9815;52.334;20.890;2024-03-02T14:51:09;10.50;99.90
19359;DHT22;9815;52.334;20.890;2024-03-02T14:53:38;10.50;99.90
19359;DHT22;9815;52.334;20.890;2024-03-02T14:56:07;10.40;99.90
19359;DHT22;9815;52.334;20.890;2024-03-02T14:58:37;10.30;99.90
19359;DHT22;9815;52.334;20.890;2024-03-02T15:01:05;10.30;99.90
19359;DHT22;9815;52.334;20.890;2024-03-02T15:03:36;10.30;99.90
19359;DHT22;9815;52.334;20.890;2024-03-02T15:06:05;10.20;99.90
19359;DHT22;9815;52.334;20.890;2024-03-02T15:08:34;10.10;99.90
19359;DHT22;9815;52.334;20.890;2024-03-02T15:11:04;10.10;99.90
19359;DHT22;9815;52.334;20.890;2024-03-02T15:13:33;10.00;99.90
19359;DHT22;9815;52.334;20.890;2024-03-02T15:16:04;9.90;99.90
19359;DHT22;9815;52.334;20.890;2024-03-02T15:18:33;9.80;99.90
19359;DHT22;9815;52.334;20.890;2024-03-02T15:21:03;9.80;99.90
19359;DHT22;9815;52.334;20.890;2024-03-02T15:23:31;9.80;99.90
19359;DHT22;9815;52.334;20.890;2024-03-02T15:26:01;9.70;99.90
19359;DHT22;9815;52.334;20.890;2024-03-02T15:28:29;9.70;99.90
19359;DHT22;9815;52.334;20.890;2024-03-02T15:30:58;9.70;99.90
19359;DHT22;9815;52.334;20.890;2024-03-02T15:33:28;9.70;99.90
19359;DHT22;9815;52.334;20.890;2024-03-02T15:35:59;9.70;99.90
19359;DHT22;9815;52.334;20.890;2024-03-02T15:38:28;9.60;99.90
19359;DHT22;9815;52.334;20.890;2024-03-02T15:41:04;9.60;99.90
19359;DHT22;9815;52.334;20.890;2024-03-02T15:43:33;9.60;99.90
19359;DHT22;9815;52.334;20.890;2024-03-02T15:46:03;9.50;99.90
19359;DHT22;9815;52.334;20.890;2024-03-02T15:48:33;9.60;99.90
19359;DHT22;9815;52.334;20.890;2024-03-02T15:51:02;9.50;99.90
19359;DHT22;9815;52.334;20.890;2024-03-02T15:53:33;9.40;99.90
19359;DHT22;9815;52.334;20.890;2024-03-02T15:56:02;9.40;99.90
19359;DHT22;9815;52.334;20.890;2024-03-02T15:58:35;9.30;99.90
19359;DHT22;9815;52.334;20.890;2024-03-02T16:01:04;9.30;99.90
19359;DHT22;9815;52.334;20.890;2024-03-02T16:03:35;9.30;99.90